La Salle, Texas
Current Conditions -  °F | °C
As of 1:15 AM on Thursday 18 Dec 2014 (Local Time) from KPKV Reporting Station
Overcast Overcast  
Wind Chill: 66°   Ceiling: 5000
Heat Index: 66°   Visibility: 7mi
Dew Point: 65°   Wind: 3mph
Humidity: 96%   Direction: 150°SSE
Pressure: 30.05"   Gusts: NA
Location:  28.79°N, 96.67°W
Report Text: KPKV 180715Z AUTO 15003KT 7SM SCT045 OVC050 19/18 A3005 RMK AO2 T01870181
Loading
Personal Weather Stations






























Interactive Weather Map New forecast layout! Learn more

10-Day Weather Forecast

Advertisements
Track Severe Weather on mobile